PWSweather.com
Personal Weather Stations
Station Observations
NBW76
Silver Creek, North Bend, WA 98065

Silver CreekNorth Bend, WA 98065

Lat: 47.4993612, Lon: -121.7783245

Elevation: 443

Station Type: Davisd VP2 + Solar + UV + Webcam

Latest ConditionsUpdated 7:20:01 PM PDT Monday, Mar 27, 2017
Currently Today's Max Today's Min Today's Average
Temperature 46.7°F8.2°C 53.1°F11.7°C 40.8°F4.9°C 44.9°F7.2°C
Dew Point 42.2°F5.7°C 45.8°F7.7°C 39.0°F3.9°C 41.7°F5.4°C
Winds 2.3 mph NNW3.7 kmh NNW 8.1 mph SSW13.0 kmh SSW - 2.3 mph 3.7 kmh
Wind Gusts 3.5 mph5.6 kmh 13.8 mph22.2 kmh - -
Humidity 84% 95% 74% 89%
Pressure 30.18 in1022.0 mb 30.18 in1022.0 mb 29.83 in1010.2 mb -
Precipitation - 0.37 in9.4 mm - -
Hour Temp Dew Point Humidity Winds Wind Gusts Pressure Precip Precip Rate Daily Precip Total
07:20 PM 46.7°F8.2°C 42.2°F5.7°C 84% 2.3 mph NNW3.7 kmh NNW 3.5 mph5.6 kmh 30.18 in1022.0 mb - 0.00 in0.0 mm 0.37 in9.4 mm
07:10 PM 46.6°F8.1°C 42.3°F5.7°C 85% 2.3 mph N3.7 kmh N 10.4 mph16.7 kmh 30.18 in1022.0 mb - 0.02 in0.5 mm 0.37 in9.4 mm
07:00 PM 47.5°F8.6°C 42.3°F5.7°C 82% 3.5 mph ESE5.6 kmh ESE 4.6 mph7.4 kmh 30.17 in1021.7 mb - 0.01 in0.3 mm 0.36 in9.1 mm
06:50 PM 48.5°F9.2°C 42.0°F5.6°C 78% 2.3 mph E3.7 kmh E 4.6 mph7.4 kmh 30.17 in1021.7 mb - 0.00 in0.0 mm 0.35 in8.9 mm
06:40 PM 48.8°F9.3°C 41.9°F5.5°C 77% 6.9 mph E11.1 kmh E 13.8 mph22.2 kmh 30.17 in1021.7 mb - 0.00 in0.0 mm 0.35 in8.9 mm
06:30 PM 48.9°F9.4°C 42.0°F5.6°C 77% 4.6 mph ESE7.4 kmh ESE 5.8 mph9.3 kmh 30.17 in1021.7 mb - 0.00 in0.0 mm 0.35 in8.9 mm
06:20 PM 49.0°F9.4°C 42.4°F5.8°C 78% 1.2 mph SW1.9 kmh SW 2.3 mph3.7 kmh 30.17 in1021.7 mb - 0.00 in0.0 mm 0.35 in8.9 mm
06:10 PM 48.8°F9.3°C 41.6°F5.3°C 76% 2.3 mph ESE3.7 kmh ESE 3.5 mph5.6 kmh 30.16 in1021.3 mb - 0.00 in0.0 mm 0.35 in8.9 mm
06:00 PM 48.8°F9.3°C 41.6°F5.3°C 76% 3.5 mph WSW5.6 kmh WSW 6.9 mph11.1 kmh 30.16 in1021.3 mb - 0.00 in0.0 mm 0.35 in8.9 mm
05:50 PM 49.0°F9.4°C 42.1°F5.6°C 77% 2.3 mph NE3.7 kmh NE 5.8 mph9.3 kmh 30.16 in1021.3 mb - 0.00 in0.0 mm 0.35 in8.9 mm
05:40 PM 49.0°F9.4°C 41.4°F5.2°C 75% 4.6 mph E7.4 kmh E 11.5 mph18.5 kmh 30.17 in1021.7 mb - 0.00 in0.0 mm 0.35 in8.9 mm
05:30 PM 49.2°F9.6°C 42.3°F5.7°C 77% 4.6 mph SW7.4 kmh SW 9.2 mph14.8 kmh 30.16 in1021.3 mb - 0.00 in0.0 mm 0.35 in8.9 mm
05:20 PM 49.0°F9.4°C 42.1°F5.6°C 77% 1.2 mph E1.9 kmh E 2.3 mph3.7 kmh 30.16 in1021.3 mb - 0.00 in0.0 mm 0.35 in8.9 mm
05:10 PM 49.1°F9.5°C 42.9°F6.1°C 79% 1.2 mph E1.9 kmh E 1.2 mph1.9 kmh 30.16 in1021.3 mb - 0.00 in0.0 mm 0.35 in8.9 mm
05:00 PM 48.9°F9.4°C 43.6°F6.4°C 82% 2.3 mph E3.7 kmh E 6.9 mph11.1 kmh 30.16 in1021.3 mb - 0.00 in0.0 mm 0.35 in8.9 mm
04:50 PM 49.0°F9.4°C 42.8°F6.0°C 79% 1.2 mph NE1.9 kmh NE 3.5 mph5.6 kmh 30.16 in1021.3 mb - 0.00 in0.0 mm 0.35 in8.9 mm
04:40 PM 49.4°F9.7°C 43.8°F6.6°C 81% 1.2 mph SE1.9 kmh SE 1.2 mph1.9 kmh 30.16 in1021.3 mb - 0.00 in0.0 mm 0.35 in8.9 mm
04:30 PM 49.3°F9.6°C 44.7°F7.1°C 84% 2.3 mph SE3.7 kmh SE 3.5 mph5.6 kmh 30.16 in1021.3 mb - 0.00 in0.0 mm 0.35 in8.9 mm
04:20 PM 48.5°F9.2°C 42.9°F6.1°C 81% 2.3 mph ESE3.7 kmh ESE 3.5 mph5.6 kmh 30.16 in1021.3 mb - 0.00 in0.0 mm 0.35 in8.9 mm
04:10 PM 48.9°F9.4°C 44.9°F7.2°C 86% 3.5 mph ESE5.6 kmh ESE 5.8 mph9.3 kmh 30.16 in1021.3 mb - 0.00 in0.0 mm 0.35 in8.9 mm
04:00 PM 48.4°F9.1°C 44.1°F6.7°C 85% 1.2 mph NE1.9 kmh NE 3.5 mph5.6 kmh 30.16 in1021.3 mb - 0.00 in0.0 mm 0.35 in8.9 mm
03:50 PM 47.8°F8.8°C 43.2°F6.2°C 84% 2.3 mph SSW3.7 kmh SSW 6.9 mph11.1 kmh 30.16 in1021.3 mb - 0.00 in0.0 mm 0.35 in8.9 mm
03:40 PM 47.2°F8.4°C 43.8°F6.6°C 88% 1.2 mph W1.9 kmh W 3.5 mph5.6 kmh 30.17 in1021.7 mb - 0.03 in0.8 mm 0.35 in8.9 mm
03:30 PM 47.9°F8.8°C 43.3°F6.3°C 84% 1.2 mph SE1.9 kmh SE 1.2 mph1.9 kmh 30.16 in1021.3 mb - 0.01 in0.3 mm 0.32 in8.1 mm
03:20 PM 48.5°F9.2°C 43.9°F6.6°C 84% 1.2 mph SE1.9 kmh SE 3.5 mph5.6 kmh 30.15 in1021.0 mb - 0.00 in0.0 mm 0.31 in7.9 mm
03:10 PM 48.3°F9.1°C 45.2°F7.3°C 89% 1.2 mph ENE1.9 kmh ENE 2.3 mph3.7 kmh 30.15 in1021.0 mb - 0.01 in0.3 mm 0.31 in7.9 mm
03:00 PM 47.7°F8.7°C 43.4°F6.3°C 85% 1.2 mph NE1.9 kmh NE 3.5 mph5.6 kmh 30.15 in1021.0 mb - 0.09 in2.3 mm 0.30 in7.6 mm
02:50 PM 50.1°F10.1°C 44.8°F7.1°C 82% 2.3 mph S3.7 kmh S 4.6 mph7.4 kmh 30.15 in1021.0 mb - 0.01 in0.3 mm 0.22 in5.6 mm
02:40 PM 50.6°F10.3°C 44.7°F7.1°C 80% Calm Calm 1.2 mph1.9 kmh 30.12 in1020.0 mb - 0.00 in0.0 mm 0.21 in5.3 mm
02:30 PM 51.2°F10.7°C 44.6°F7.0°C 78% 1.2 mph ENE1.9 kmh ENE 3.5 mph5.6 kmh 30.11 in1019.6 mb - 0.00 in0.0 mm 0.21 in5.3 mm
02:20 PM 51.4°F10.8°C 43.8°F6.6°C 75% 2.3 mph SE3.7 kmh SE 3.5 mph5.6 kmh 30.11 in1019.6 mb - 0.00 in0.0 mm 0.21 in5.3 mm
02:10 PM 51.6°F10.9°C 44.6°F7.0°C 77% 2.3 mph ESE3.7 kmh ESE 3.5 mph5.6 kmh 30.11 in1019.6 mb - 0.00 in0.0 mm 0.21 in5.3 mm
02:00 PM 52.1°F11.2°C 45.1°F7.3°C 77% 1.2 mph SE1.9 kmh SE 2.3 mph3.7 kmh 30.11 in1019.6 mb - 0.00 in0.0 mm 0.21 in5.3 mm
01:50 PM 53.1°F11.7°C 45.1°F7.3°C 74% 3.5 mph ESE5.6 kmh ESE 10.4 mph16.7 kmh 30.10 in1019.3 mb - 0.00 in0.0 mm 0.21 in5.3 mm
01:40 PM 52.6°F11.4°C 45.6°F7.6°C 77% 2.3 mph E3.7 kmh E 8.1 mph13.0 kmh 30.10 in1019.3 mb - 0.00 in0.0 mm 0.21 in5.3 mm
01:30 PM 52.1°F11.2°C 45.8°F7.7°C 79% 2.3 mph E3.7 kmh E 5.8 mph9.3 kmh 30.09 in1019.0 mb - 0.00 in0.0 mm 0.21 in5.3 mm
01:20 PM 51.6°F10.9°C 45.3°F7.4°C 79% 2.3 mph ENE3.7 kmh ENE 3.5 mph5.6 kmh 30.09 in1019.0 mb - 0.00 in0.0 mm 0.21 in5.3 mm
01:10 PM 50.3°F10.2°C 45.7°F7.6°C 84% 1.2 mph SE1.9 kmh SE 2.3 mph3.7 kmh 30.09 in1019.0 mb - 0.01 in0.3 mm 0.21 in5.3 mm
01:00 PM 48.5°F9.2°C 45.4°F7.4°C 89% 2.3 mph NE3.7 kmh NE 4.6 mph7.4 kmh 30.10 in1019.3 mb - 0.00 in0.0 mm 0.20 in5.1 mm
12:50 PM 47.5°F8.6°C 44.4°F6.9°C 89% 3.5 mph NE5.6 kmh NE 4.6 mph7.4 kmh 30.10 in1019.3 mb - 0.00 in0.0 mm 0.20 in5.1 mm
12:40 PM 47.2°F8.4°C 42.6°F5.9°C 84% 2.3 mph NE3.7 kmh NE 2.3 mph3.7 kmh 30.10 in1019.3 mb - 0.04 in1.0 mm 0.20 in5.1 mm
12:30 PM 47.8°F8.8°C 41.9°F5.5°C 80% 8.1 mph SSW13.0 kmh SSW 11.5 mph18.5 kmh 30.10 in1019.3 mb - 0.03 in0.8 mm 0.17 in4.3 mm
12:20 PM 48.2°F9.0°C 43.0°F6.1°C 82% 3.5 mph NW5.6 kmh NW 4.6 mph7.4 kmh 30.09 in1019.0 mb - 0.00 in0.0 mm 0.14 in3.6 mm
12:10 PM 48.3°F9.1°C 44.0°F6.7°C 85% 3.5 mph N5.6 kmh N 8.1 mph13.0 kmh 30.09 in1019.0 mb - 0.00 in0.0 mm 0.14 in3.6 mm
12:00 PM 47.9°F8.8°C 43.6°F6.4°C 85% 1.2 mph E1.9 kmh E 2.3 mph3.7 kmh 30.08 in1018.6 mb - 0.01 in0.3 mm 0.14 in3.6 mm
11:50 AM 47.9°F8.8°C 44.2°F6.8°C 87% 2.3 mph ENE3.7 kmh ENE 5.8 mph9.3 kmh 30.07 in1018.3 mb - 0.00 in0.0 mm 0.13 in3.3 mm
11:40 AM 47.0°F8.3°C 44.2°F6.8°C 90% 1.2 mph ENE1.9 kmh ENE 2.3 mph3.7 kmh 30.06 in1017.9 mb - 0.00 in0.0 mm 0.13 in3.3 mm
11:30 AM 46.4°F8.0°C 43.9°F6.6°C 91% Calm Calm 1.2 mph1.9 kmh 30.06 in1017.9 mb - 0.00 in0.0 mm 0.13 in3.3 mm
11:20 AM 46.1°F7.8°C 43.9°F6.6°C 92% 2.3 mph E3.7 kmh E 3.5 mph5.6 kmh 30.06 in1017.9 mb - 0.00 in0.0 mm 0.13 in3.3 mm
11:10 AM 45.7°F7.6°C 43.8°F6.6°C 93% Calm Calm 2.3 mph3.7 kmh 30.06 in1017.9 mb - 0.00 in0.0 mm 0.13 in3.3 mm
11:00 AM 45.5°F7.5°C 43.9°F6.6°C 94% 1.2 mph SW1.9 kmh SW 2.3 mph3.7 kmh 30.06 in1017.9 mb - 0.00 in0.0 mm 0.13 in3.3 mm
10:50 AM 45.4°F7.4°C 43.8°F6.6°C 94% 1.2 mph NE1.9 kmh NE 2.3 mph3.7 kmh 30.06 in1017.9 mb - 0.00 in0.0 mm 0.13 in3.3 mm
10:40 AM 44.8°F7.1°C 43.2°F6.2°C 94% Calm Calm -- 30.06 in1017.9 mb - 0.00 in0.0 mm 0.13 in3.3 mm
10:30 AM 44.7°F7.1°C 43.1°F6.2°C 94% Calm Calm -- 30.05 in1017.6 mb - 0.00 in0.0 mm 0.13 in3.3 mm
10:20 AM 44.6°F7.0°C 42.9°F6.1°C 94% 1.2 mph E1.9 kmh E 1.2 mph1.9 kmh 30.05 in1017.6 mb - 0.00 in0.0 mm 0.13 in3.3 mm
10:10 AM 44.4°F6.9°C 42.8°F6.0°C 94% 1.2 mph SE1.9 kmh SE 1.2 mph1.9 kmh 30.05 in1017.6 mb - 0.00 in0.0 mm 0.13 in3.3 mm
10:00 AM 44.5°F6.9°C 43.2°F6.2°C 95% Calm Calm -- 30.04 in1017.3 mb - 0.00 in0.0 mm 0.13 in3.3 mm
09:50 AM 44.1°F6.7°C 42.5°F5.8°C 94% Calm Calm -- 30.03 in1016.9 mb - 0.00 in0.0 mm 0.13 in3.3 mm
09:40 AM 43.8°F6.6°C 42.5°F5.8°C 95% Calm Calm -- 30.03 in1016.9 mb - 0.00 in0.0 mm 0.13 in3.3 mm
09:30 AM 43.6°F6.4°C 42.0°F5.6°C 94% 1.2 mph E1.9 kmh E 2.3 mph3.7 kmh 30.02 in1016.6 mb - 0.01 in0.3 mm 0.13 in3.3 mm
09:20 AM 43.4°F6.3°C 42.0°F5.6°C 95% 1.2 mph SSE1.9 kmh SSE 1.2 mph1.9 kmh 30.02 in1016.6 mb - 0.00 in0.0 mm 0.12 in3.0 mm
09:10 AM 43.0°F6.1°C 41.7°F5.4°C 95% 1.2 mph S1.9 kmh S 3.5 mph5.6 kmh 30.01 in1016.3 mb - 0.00 in0.0 mm 0.12 in3.0 mm
09:00 AM 42.8°F6.0°C 41.5°F5.3°C 95% Calm Calm -- 30.01 in1016.3 mb - 0.00 in0.0 mm 0.12 in3.0 mm
08:50 AM 42.5°F5.8°C 40.9°F4.9°C 94% 2.3 mph ESE3.7 kmh ESE 2.3 mph3.7 kmh 30.00 in1015.9 mb - 0.00 in0.0 mm 0.12 in3.0 mm
08:40 AM 42.6°F5.9°C 41.3°F5.2°C 95% 2.3 mph SSE3.7 kmh SSE 3.5 mph5.6 kmh 30.00 in1015.9 mb - 0.00 in0.0 mm 0.12 in3.0 mm
08:30 AM 42.4°F5.8°C 41.1°F5.1°C 95% 2.3 mph ESE3.7 kmh ESE 2.3 mph3.7 kmh 30.00 in1015.9 mb - 0.00 in0.0 mm 0.12 in3.0 mm
08:20 AM 42.1°F5.6°C 40.8°F4.9°C 95% 1.2 mph SE1.9 kmh SE 2.3 mph3.7 kmh 29.99 in1015.6 mb - 0.00 in0.0 mm 0.12 in3.0 mm
08:10 AM 42.0°F5.6°C 40.7°F4.8°C 95% 1.2 mph NE1.9 kmh NE 3.5 mph5.6 kmh 29.99 in1015.6 mb - 0.01 in0.3 mm 0.12 in3.0 mm
08:00 AM 41.9°F5.5°C 40.6°F4.8°C 95% 2.3 mph ESE3.7 kmh ESE 3.5 mph5.6 kmh 29.99 in1015.6 mb - 0.00 in0.0 mm 0.11 in2.8 mm
07:50 AM 41.7°F5.4°C 40.1°F4.5°C 94% 2.3 mph E3.7 kmh E 3.5 mph5.6 kmh 29.98 in1015.2 mb - 0.00 in0.0 mm 0.11 in2.8 mm
07:40 AM 41.7°F5.4°C 40.1°F4.5°C 94% 1.2 mph SE1.9 kmh SE 2.3 mph3.7 kmh 29.97 in1014.9 mb - 0.01 in0.3 mm 0.11 in2.8 mm
07:30 AM 41.6°F5.3°C 40.0°F4.4°C 94% 1.2 mph E1.9 kmh E 2.3 mph3.7 kmh 29.97 in1014.9 mb - 0.01 in0.3 mm 0.11 in2.8 mm
07:20 AM 41.6°F5.3°C 40.0°F4.4°C 94% Calm Calm 2.3 mph3.7 kmh 29.97 in1014.9 mb - 0.00 in0.0 mm 0.10 in2.5 mm
07:10 AM 41.6°F5.3°C 40.0°F4.4°C 94% 1.2 mph ESE1.9 kmh ESE 2.3 mph3.7 kmh 29.96 in1014.6 mb - 0.00 in0.0 mm 0.10 in2.5 mm
07:00 AM 41.5°F5.3°C 39.9°F4.4°C 94% 1.2 mph ESE1.9 kmh ESE 1.2 mph1.9 kmh 29.96 in1014.6 mb - 0.01 in0.3 mm 0.10 in2.5 mm
06:50 AM 41.5°F5.3°C 39.9°F4.4°C 94% Calm Calm 1.2 mph1.9 kmh 29.96 in1014.6 mb - 0.00 in0.0 mm 0.09 in2.3 mm
06:40 AM 41.6°F5.3°C 39.7°F4.3°C 93% 2.3 mph SW3.7 kmh SW 3.5 mph5.6 kmh 29.96 in1014.6 mb - 0.02 in0.5 mm 0.09 in2.3 mm
06:30 AM 41.7°F5.4°C 39.8°F4.3°C 93% 1.2 mph SSW1.9 kmh SSW 3.5 mph5.6 kmh 29.96 in1014.6 mb - 0.00 in0.0 mm 0.07 in1.8 mm
06:20 AM 41.7°F5.4°C 39.8°F4.3°C 93% 2.3 mph SE3.7 kmh SE 4.6 mph7.4 kmh 29.95 in1014.2 mb - 0.00 in0.0 mm 0.07 in1.8 mm
06:10 AM 41.8°F5.4°C 39.9°F4.4°C 93% 4.6 mph ESE7.4 kmh ESE 5.8 mph9.3 kmh 29.94 in1013.9 mb - 0.01 in0.3 mm 0.07 in1.8 mm
06:00 AM 41.7°F5.4°C 39.8°F4.3°C 93% 5.8 mph ESE9.3 kmh ESE 8.1 mph13.0 kmh 29.93 in1013.5 mb - 0.00 in0.0 mm 0.06 in1.5 mm
05:50 AM 41.9°F5.5°C 40.0°F4.4°C 93% 2.3 mph SE3.7 kmh SE 3.5 mph5.6 kmh 29.93 in1013.5 mb - 0.00 in0.0 mm 0.06 in1.5 mm
05:40 AM 41.7°F5.4°C 40.1°F4.5°C 94% 2.3 mph ESE3.7 kmh ESE 3.5 mph5.6 kmh 29.93 in1013.5 mb - 0.00 in0.0 mm 0.06 in1.5 mm
05:30 AM 41.5°F5.3°C 39.9°F4.4°C 94% 4.6 mph ESE7.4 kmh ESE 6.9 mph11.1 kmh 29.92 in1013.2 mb - 0.00 in0.0 mm 0.06 in1.5 mm
05:20 AM 41.5°F5.3°C 39.6°F4.2°C 93% 1.2 mph ESE1.9 kmh ESE 3.5 mph5.6 kmh 29.91 in1012.9 mb - 0.00 in0.0 mm 0.06 in1.5 mm
05:10 AM 41.7°F5.4°C 39.8°F4.3°C 93% 4.6 mph E7.4 kmh E 5.8 mph9.3 kmh 29.91 in1012.9 mb - 0.00 in0.0 mm 0.06 in1.5 mm
05:00 AM 41.5°F5.3°C 39.9°F4.4°C 94% 4.6 mph E7.4 kmh E 11.5 mph18.5 kmh 29.91 in1012.9 mb - 0.00 in0.0 mm 0.06 in1.5 mm
04:50 AM 41.6°F5.3°C 40.0°F4.4°C 94% 3.5 mph SE5.6 kmh SE 4.6 mph7.4 kmh 29.91 in1012.9 mb - 0.00 in0.0 mm 0.06 in1.5 mm
04:40 AM 41.4°F5.2°C 39.8°F4.3°C 94% 1.2 mph ESE1.9 kmh ESE 3.5 mph5.6 kmh 29.90 in1012.5 mb - 0.00 in0.0 mm 0.06 in1.5 mm
04:30 AM 41.2°F5.1°C 39.6°F4.2°C 94% 3.5 mph ESE5.6 kmh ESE 4.6 mph7.4 kmh 29.90 in1012.5 mb - 0.00 in0.0 mm 0.06 in1.5 mm
04:20 AM 41.0°F5.0°C 39.4°F4.1°C 94% 3.5 mph SE5.6 kmh SE 4.6 mph7.4 kmh 29.90 in1012.5 mb - 0.00 in0.0 mm 0.06 in1.5 mm
04:10 AM 40.9°F4.9°C 39.3°F4.1°C 94% 2.3 mph SSE3.7 kmh SSE 2.3 mph3.7 kmh 29.89 in1012.2 mb - 0.00 in0.0 mm 0.06 in1.5 mm
04:00 AM 40.9°F4.9°C 39.3°F4.1°C 94% 1.2 mph N1.9 kmh N 2.3 mph3.7 kmh 29.89 in1012.2 mb - 0.00 in0.0 mm 0.06 in1.5 mm
03:50 AM 40.8°F4.9°C 39.2°F4.0°C 94% 2.3 mph S3.7 kmh S 4.6 mph7.4 kmh 29.89 in1012.2 mb - 0.00 in0.0 mm 0.06 in1.5 mm
03:40 AM 40.8°F4.9°C 39.2°F4.0°C 94% 3.5 mph SE5.6 kmh SE 5.8 mph9.3 kmh 29.89 in1012.2 mb - 0.00 in0.0 mm 0.06 in1.5 mm
03:30 AM 41.0°F5.0°C 39.4°F4.1°C 94% 2.3 mph SE3.7 kmh SE 3.5 mph5.6 kmh 29.89 in1012.2 mb - 0.00 in0.0 mm 0.06 in1.5 mm
03:20 AM 41.1°F5.1°C 39.5°F4.2°C 94% 3.5 mph SE5.6 kmh SE 3.5 mph5.6 kmh 29.89 in1012.2 mb - 0.01 in0.3 mm 0.06 in1.5 mm
03:10 AM 41.1°F5.1°C 39.5°F4.2°C 94% 3.5 mph SE5.6 kmh SE 4.6 mph7.4 kmh 29.89 in1012.2 mb - 0.00 in0.0 mm 0.05 in1.3 mm
03:00 AM 41.1°F5.1°C 39.5°F4.2°C 94% 3.5 mph E5.6 kmh E 4.6 mph7.4 kmh 29.88 in1011.9 mb - 0.00 in0.0 mm 0.05 in1.3 mm
02:50 AM 41.0°F5.0°C 39.4°F4.1°C 94% Calm Calm 3.5 mph5.6 kmh 29.88 in1011.9 mb - 0.00 in0.0 mm 0.05 in1.3 mm
02:40 AM 41.0°F5.0°C 39.4°F4.1°C 94% 1.2 mph SW1.9 kmh SW 2.3 mph3.7 kmh 29.88 in1011.9 mb - 0.00 in0.0 mm 0.05 in1.3 mm
02:30 AM 40.9°F4.9°C 39.3°F4.1°C 94% 1.2 mph NE1.9 kmh NE 1.2 mph1.9 kmh 29.88 in1011.9 mb - 0.01 in0.3 mm 0.05 in1.3 mm
02:20 AM 40.9°F4.9°C 39.0°F3.9°C 93% 1.2 mph E1.9 kmh E 3.5 mph5.6 kmh 29.88 in1011.9 mb - 0.02 in0.5 mm 0.04 in1.0 mm
02:10 AM 41.1°F5.1°C 39.2°F4.0°C 93% 3.5 mph SE5.6 kmh SE 4.6 mph7.4 kmh 29.88 in1011.9 mb - 0.01 in0.3 mm 0.02 in0.5 mm
02:00 AM 41.1°F5.1°C 39.2°F4.0°C 93% 2.3 mph SE3.7 kmh SE 3.5 mph5.6 kmh 29.88 in1011.9 mb - 0.01 in0.3 mm 0.01 in0.3 mm
01:50 AM 41.0°F5.0°C 39.1°F3.9°C 93% 3.5 mph SE5.6 kmh SE 3.5 mph5.6 kmh 29.87 in1011.5 mb - 0.00 in0.0 mm 0.00 in0.0 mm
01:40 AM 41.1°F5.1°C 39.2°F4.0°C 93% 4.6 mph ESE7.4 kmh ESE 9.2 mph14.8 kmh 29.86 in1011.2 mb - 0.00 in0.0 mm 0.00 in0.0 mm
01:30 AM 41.5°F5.3°C 39.6°F4.2°C 93% 4.6 mph ESE7.4 kmh ESE 6.9 mph11.1 kmh 29.87 in1011.5 mb - 0.00 in0.0 mm 0.00 in0.0 mm
01:20 AM 41.5°F5.3°C 39.6°F4.2°C 93% 4.6 mph E7.4 kmh E 9.2 mph14.8 kmh 29.87 in1011.5 mb - 0.00 in0.0 mm 0.00 in0.0 mm
01:10 AM 41.4°F5.2°C 39.5°F4.2°C 93% 3.5 mph SE5.6 kmh SE 3.5 mph5.6 kmh 29.86 in1011.2 mb - 0.00 in0.0 mm 0.00 in0.0 mm
01:00 AM 41.3°F5.2°C 39.7°F4.3°C 94% 5.8 mph SE9.3 kmh SE 6.9 mph11.1 kmh 29.86 in1011.2 mb - 0.00 in0.0 mm 0.00 in0.0 mm
12:50 AM 41.3°F5.2°C 39.7°F4.3°C 94% 3.5 mph SE5.6 kmh SE 4.6 mph7.4 kmh 29.86 in1011.2 mb - 0.00 in0.0 mm 0.00 in0.0 mm
12:40 AM 41.3°F5.2°C 39.7°F4.3°C 94% 2.3 mph SSE3.7 kmh SSE 4.6 mph7.4 kmh 29.86 in1011.2 mb - 0.00 in0.0 mm 0.00 in0.0 mm
12:30 AM 41.5°F5.3°C 39.9°F4.4°C 94% 3.5 mph SE5.6 kmh SE 5.8 mph9.3 kmh 29.85 in1010.8 mb - 0.00 in0.0 mm 0.00 in0.0 mm
12:20 AM 41.5°F5.3°C 39.9°F4.4°C 94% 4.6 mph SE7.4 kmh SE 5.8 mph9.3 kmh 29.84 in1010.5 mb - 0.00 in0.0 mm 0.00 in0.0 mm
12:10 AM 41.6°F5.3°C 40.0°F4.4°C 94% 3.5 mph SE5.6 kmh SE 3.5 mph5.6 kmh 29.84 in1010.5 mb - 0.00 in0.0 mm 0.00 in0.0 mm
12:00 AM 41.5°F5.3°C 39.9°F4.4°C 94% 4.6 mph ESE7.4 kmh ESE 6.9 mph11.1 kmh 29.83 in1010.2 mb - 0.00 in0.0 mm 0.00 in0.0 mm